Dallas, TX (75201)

1:37 PM CST on December 07, 2016 (GMT -0600)
MAYOR'S WAY | | Change Station

Elev 492 ft 32.80 °N, 96.81 °W | Updated 3 minutes ago

Overcast
Overcast
53.1 °F
Feels Like 53.1 °F
N
1.0
Wind Variable Wind from NW

Today
High -- | Low -- °F
--% Chance of Precip.
Yesterday
High -- | Low -- °F
Precip. -- in
Pressure 30.09 in
Visibility 8.0 miles
Clouds Few 3000 ft
Overcast 5500 ft
Dew Point 42 °F
Humidity 65%
Rainfall 0.00 in
Snow Depth Not available.
7:16 AM 5:20 PM
First Quarter, 55% visible
METAR KDAL 071853Z 00000KT 8SM FEW030 OVC055 11/05 A3009 RMK AO2 SLP187 T01110050
Pressure 30.09 in
Visibility 8.0 miles
Clouds Few 3000 ft
Overcast 5500 ft
Dew Point 42 °F
Humidity 65%
Rainfall 0.00 in
Snow Depth Not available.
7:16 AM 5:20 PM
First Quarter, 55% visible
METAR KDAL 071853Z 00000KT 8SM FEW030 OVC055 11/05 A3009 RMK AO2 SLP187 T01110050

10-Day Weather Forecast

Almanac

Astronomy

Dec. 07, 2016 Rise Set
Actual Time
Civil Twilight
Nautical Twilight
Astronomical Twilight
Moon
Length of Visible Light
Length of Day
Tomorrow will be .
, % of the Moon is Illuminated

Today's Extremes

State Highs State Lows

Community

WunderPhotos

Upload Photos

1,956,164 photos uploaded!

WunderBlog® & News

Nearby

Air Quality

  Air Quality AQ Index Pollutant
Not available.

Snow Depth

Station Depth Elevation

Earthquake Activity

City Distance Mag. Time & Date
Minimum magnitude displayed is 2.5.

Coastal Water Temperatures

Place Temperature

Stations

Nearby Weather Stations

Station Location Temp. Windchill Dew Point Humidity Wind Precip. Elev Updated Type
                   

Watches & Warnings

There are currently no watches in effect.